Terminal Aerodrome Forecast
Issued by NWS

Home | Current Version | Previous Version | Text Only | Print | Product List | Glossary Off
Versions: 1 2 3 4 5 6 7 8 9 10 11 12 13 14 15 16 17 18 19 20 21 22 23 24 25 26 27 28 29 30 31

448
FTUS43 KLOT 250259 AAB
TAFORD
TAF AMD
KORD 250259Z 2503/2606 03013KT P6SM VCSH OVC080
     FM250500 03012KT 5SM -SHRA FEW006 BKN016 OVC050
     FM250900 04011KT 3SM -SHRA BR BKN005 OVC012
      TEMPO 2513/2517 1SM -DZ BR OVC003
     FM251800 05012KT 3SM -SHRA BR OVC007
     FM260000 07009KT 2SM -RADZ BR BKN005 OVC010=

USA.gov is the U.S. government's official web portal to all federal, state and local government web resources and services.